sensor_id;sensor_type;location;lat;lon;timestamp;P1;durP1;ratioP1;P2;durP2;ratioP2
79708;SDS011;69203;48.964;9.118;2023-04-25T00:00:29;3.67;;;0.10;;
79708;SDS011;69203;48.964;9.118;2023-04-25T00:01:30;3.70;;;0.10;;
79708;SDS011;69203;48.964;9.118;2023-04-25T00:02:30;3.63;;;0.10;;
79708;SDS011;69203;48.964;9.118;2023-04-25T00:03:32;3.47;;;0.10;;
79708;SDS011;69203;48.964;9.118;2023-04-25T00:04:32;3.80;;;0.10;;
79708;SDS011;69203;48.964;9.118;2023-04-25T00:05:33;3.83;;;0.10;;
79708;SDS011;69203;48.964;9.118;2023-04-25T00:06:34;3.88;;;0.10;;
79708;SDS011;69203;48.964;9.118;2023-04-25T00:07:36;3.78;;;0.10;;
79708;SDS011;69203;48.964;9.118;2023-04-25T00:08:36;3.83;;;0.10;;
79708;SDS011;69203;48.964;9.118;2023-04-25T00:09:37;3.70;;;0.10;;
79708;SDS011;69203;48.964;9.118;2023-04-25T00:10:37;3.67;;;0.10;;
79708;SDS011;69203;48.964;9.118;2023-04-25T00:11:38;3.70;;;0.10;;
79708;SDS011;69203;48.964;9.118;2023-04-25T00:12:38;3.80;;;0.10;;
79708;SDS011;69203;48.964;9.118;2023-04-25T00:13:39;3.73;;;0.10;;
79708;SDS011;69203;48.964;9.118;2023-04-25T00:14:41;3.60;;;0.10;;
79708;SDS011;69203;48.964;9.118;2023-04-25T00:15:42;3.70;;;0.10;;
79708;SDS011;69203;48.964;9.118;2023-04-25T00:16:42;3.60;;;0.10;;
79708;SDS011;69203;48.964;9.118;2023-04-25T00:17:43;3.75;;;0.10;;
79708;SDS011;69203;48.964;9.118;2023-04-25T00:18:45;3.58;;;0.10;;
79708;SDS011;69203;48.964;9.118;2023-04-25T00:19:51;3.65;;;0.10;;
79708;SDS011;69203;48.964;9.118;2023-04-25T00:20:51;3.83;;;0.10;;
79708;SDS011;69203;48.964;9.118;2023-04-25T00:21:52;3.80;;;0.10;;
79708;SDS011;69203;48.964;9.118;2023-04-25T00:22:53;3.95;;;0.10;;
79708;SDS011;69203;48.964;9.118;2023-04-25T00:23:54;3.80;;;0.10;;
79708;SDS011;69203;48.964;9.118;2023-04-25T00:24:55;3.65;;;0.10;;
79708;SDS011;69203;48.964;9.118;2023-04-25T00:25:57;3.88;;;0.10;;
79708;SDS011;69203;48.964;9.118;2023-04-25T00:26:57;4.20;;;0.10;;
79708;SDS011;69203;48.964;9.118;2023-04-25T00:27:57;3.83;;;0.10;;
79708;SDS011;69203;48.964;9.118;2023-04-25T00:28:58;3.70;;;0.10;;
79708;SDS011;69203;48.964;9.118;2023-04-25T00:29:58;3.77;;;0.10;;
79708;SDS011;69203;48.964;9.118;2023-04-25T00:30:59;3.58;;;0.10;;
79708;SDS011;69203;48.964;9.118;2023-04-25T00:32:00;3.63;;;0.10;;
79708;SDS011;69203;48.964;9.118;2023-04-25T00:33:01;3.72;;;0.10;;
79708;SDS011;69203;48.964;9.118;2023-04-25T00:34:01;3.57;;;0.10;;
79708;SDS011;69203;48.964;9.118;2023-04-25T00:35:02;3.67;;;0.00;;
79708;SDS011;69203;48.964;9.118;2023-04-25T00:36:02;3.40;;;0.10;;
79708;SDS011;69203;48.964;9.118;2023-04-25T00:37:03;3.73;;;0.10;;
79708;SDS011;69203;48.964;9.118;2023-04-25T00:38:03;3.53;;;0.10;;
79708;SDS011;69203;48.964;9.118;2023-04-25T00:39:03;3.50;;;0.10;;
79708;SDS011;69203;48.964;9.118;2023-04-25T00:40:04;3.37;;;0.10;;
79708;SDS011;69203;48.964;9.118;2023-04-25T00:41:06;3.42;;;0.10;;
79708;SDS011;69203;48.964;9.118;2023-04-25T00:42:07;3.53;;;0.10;;
79708;SDS011;69203;48.964;9.118;2023-04-25T00:43:08;3.50;;;0.10;;
79708;SDS011;69203;48.964;9.118;2023-04-25T00:44:08;3.63;;;0.10;;
79708;SDS011;69203;48.964;9.118;2023-04-25T00:45:12;3.50;;;0.10;;
79708;SDS011;69203;48.964;9.118;2023-04-25T00:46:14;3.35;;;0.10;;
79708;SDS011;69203;48.964;9.118;2023-04-25T00:47:15;3.53;;;0.10;;
79708;SDS011;69203;48.964;9.118;2023-04-25T00:48:16;3.47;;;0.10;;
79708;SDS011;69203;48.964;9.118;2023-04-25T00:49:17;3.55;;;0.10;;
79708;SDS011;69203;48.964;9.118;2023-04-25T00:50:17;3.57;;;0.10;;
79708;SDS011;69203;48.964;9.118;2023-04-25T00:51:20;3.43;;;0.10;;
79708;SDS011;69203;48.964;9.118;2023-04-25T00:52:21;3.30;;;0.10;;
79708;SDS011;69203;48.964;9.118;2023-04-25T00:53:22;3.63;;;0.10;;
79708;SDS011;69203;48.964;9.118;2023-04-25T00:54:23;3.40;;;0.10;;
79708;SDS011;69203;48.964;9.118;2023-04-25T00:55:25;3.85;;;0.10;;
79708;SDS011;69203;48.964;9.118;2023-04-25T00:56:25;3.77;;;0.10;;
79708;SDS011;69203;48.964;9.118;2023-04-25T00:57:26;3.63;;;0.10;;
79708;SDS011;69203;48.964;9.118;2023-04-25T00:58:27;3.53;;;0.10;;
79708;SDS011;69203;48.964;9.118;2023-04-25T00:59:27;3.67;;;0.10;;
79708;SDS011;69203;48.964;9.118;2023-04-25T01:00:28;3.57;;;0.10;;
79708;SDS011;69203;48.964;9.118;2023-04-25T01:01:29;3.67;;;0.10;;
79708;SDS011;69203;48.964;9.118;2023-04-25T01:02:31;3.47;;;0.10;;
79708;SDS011;69203;48.964;9.118;2023-04-25T01:03:33;3.42;;;0.10;;
79708;SDS011;69203;48.964;9.118;2023-04-25T01:04:40;3.55;;;0.10;;
79708;SDS011;69203;48.964;9.118;2023-04-25T01:05:41;3.47;;;0.10;;
79708;SDS011;69203;48.964;9.118;2023-04-25T01:06:42;3.63;;;0.10;;
79708;SDS011;69203;48.964;9.118;2023-04-25T01:07:42;3.73;;;0.10;;
79708;SDS011;69203;48.964;9.118;2023-04-25T01:08:43;3.70;;;0.10;;
79708;SDS011;69203;48.964;9.118;2023-04-25T01:09:43;3.83;;;0.10;;
79708;SDS011;69203;48.964;9.118;2023-04-25T01:10:44;3.77;;;0.10;;
79708;SDS011;69203;48.964;9.118;2023-04-25T01:11:44;3.60;;;0.10;;
79708;SDS011;69203;48.964;9.118;2023-04-25T01:12:44;3.67;;;0.10;;
79708;SDS011;69203;48.964;9.118;2023-04-25T01:13:45;3.97;;;0.10;;
79708;SDS011;69203;48.964;9.118;2023-04-25T01:14:46;3.70;;;0.10;;
79708;SDS011;69203;48.964;9.118;2023-04-25T01:15:47;3.77;;;0.10;;
79708;SDS011;69203;48.964;9.118;2023-04-25T01:16:49;3.80;;;0.10;;
79708;SDS011;69203;48.964;9.118;2023-04-25T01:17:50;3.83;;;0.10;;
79708;SDS011;69203;48.964;9.118;2023-04-25T01:18:52;3.90;;;0.10;;
79708;SDS011;69203;48.964;9.118;2023-04-25T01:19:53;3.97;;;0.10;;
79708;SDS011;69203;48.964;9.118;2023-04-25T01:20:53;4.03;;;0.10;;
79708;SDS011;69203;48.964;9.118;2023-04-25T01:21:54;3.67;;;0.10;;
79708;SDS011;69203;48.964;9.118;2023-04-25T01:22:55;3.80;;;0.10;;
79708;SDS011;69203;48.964;9.118;2023-04-25T01:23:55;3.97;;;0.10;;
79708;SDS011;69203;48.964;9.118;2023-04-25T01:24:56;3.93;;;0.10;;
79708;SDS011;69203;48.964;9.118;2023-04-25T01:25:57;3.73;;;0.10;;
79708;SDS011;69203;48.964;9.118;2023-04-25T01:26:58;3.67;;;0.10;;
79708;SDS011;69203;48.964;9.118;2023-04-25T01:28:00;3.75;;;0.10;;
79708;SDS011;69203;48.964;9.118;2023-04-25T01:29:01;3.80;;;0.10;;
79708;SDS011;69203;48.964;9.118;2023-04-25T01:30:02;3.73;;;0.10;;
79708;SDS011;69203;48.964;9.118;2023-04-25T01:31:03;3.70;;;0.10;;
79708;SDS011;69203;48.964;9.118;2023-04-25T01:32:05;3.85;;;0.10;;
79708;SDS011;69203;48.964;9.118;2023-04-25T01:33:06;3.83;;;0.10;;
79708;SDS011;69203;48.964;9.118;2023-04-25T01:34:08;3.67;;;0.10;;
79708;SDS011;69203;48.964;9.118;2023-04-25T01:35:09;3.70;;;0.10;;
79708;SDS011;69203;48.964;9.118;2023-04-25T01:36:11;3.45;;;0.10;;
79708;SDS011;69203;48.964;9.118;2023-04-25T01:37:13;3.65;;;0.10;;
79708;SDS011;69203;48.964;9.118;2023-04-25T01:38:14;3.43;;;0.10;;
79708;SDS011;69203;48.964;9.118;2023-04-25T01:39:15;3.58;;;0.10;;
79708;SDS011;69203;48.964;9.118;2023-04-25T01:40:15;3.45;;;0.10;;
79708;SDS011;69203;48.964;9.118;2023-04-25T01:41:16;3.73;;;0.10;;
79708;SDS011;69203;48.964;9.118;2023-04-25T01:42:17;3.40;;;0.10;;
79708;SDS011;69203;48.964;9.118;2023-04-25T01:43:18;3.63;;;0.10;;
79708;SDS011;69203;48.964;9.118;2023-04-25T01:44:19;3.53;;;0.10;;
79708;SDS011;69203;48.964;9.118;2023-04-25T01:45:20;3.63;;;0.10;;
79708;SDS011;69203;48.964;9.118;2023-04-25T01:46:20;3.40;;;0.10;;
79708;SDS011;69203;48.964;9.118;2023-04-25T01:47:21;3.37;;;0.10;;
79708;SDS011;69203;48.964;9.118;2023-04-25T01:48:21;3.73;;;0.10;;
79708;SDS011;69203;48.964;9.118;2023-04-25T01:49:22;3.67;;;0.10;;
79708;SDS011;69203;48.964;9.118;2023-04-25T01:50:22;3.67;;;0.10;;
79708;SDS011;69203;48.964;9.118;2023-04-25T01:51:23;3.45;;;0.10;;
79708;SDS011;69203;48.964;9.118;2023-04-25T01:52:24;3.23;;;0.10;;
79708;SDS011;69203;48.964;9.118;2023-04-25T01:53:24;3.27;;;0.10;;
79708;SDS011;69203;48.964;9.118;2023-04-25T01:54:26;3.28;;;0.10;;
79708;SDS011;69203;48.964;9.118;2023-04-25T01:55:26;3.53;;;0.10;;
79708;SDS011;69203;48.964;9.118;2023-04-25T01:56:29;3.33;;;0.10;;
79708;SDS011;69203;48.964;9.118;2023-04-25T01:57:31;3.35;;;0.10;;
79708;SDS011;69203;48.964;9.118;2023-04-25T01:58:31;3.43;;;0.10;;
79708;SDS011;69203;48.964;9.118;2023-04-25T01:59:31;3.43;;;0.10;;
79708;SDS011;69203;48.964;9.118;2023-04-25T02:00:32;3.43;;;0.10;;
79708;SDS011;69203;48.964;9.118;2023-04-25T02:01:32;3.37;;;0.10;;
79708;SDS011;69203;48.964;9.118;2023-04-25T02:02:33;3.27;;;0.10;;
79708;SDS011;69203;48.964;9.118;2023-04-25T02:03:33;3.60;;;0.10;;
79708;SDS011;69203;48.964;9.118;2023-04-25T02:04:34;3.28;;;0.08;;
79708;SDS011;69203;48.964;9.118;2023-04-25T02:05:35;3.43;;;0.10;;
79708;SDS011;69203;48.964;9.118;2023-04-25T02:06:37;3.47;;;0.10;;
79708;SDS011;69203;48.964;9.118;2023-04-25T02:07:37;3.33;;;0.10;;
79708;SDS011;69203;48.964;9.118;2023-04-25T02:08:37;3.43;;;0.10;;
79708;SDS011;69203;48.964;9.118;2023-04-25T02:09:38;3.53;;;0.10;;
79708;SDS011;69203;48.964;9.118;2023-04-25T02:10:38;3.47;;;0.10;;
79708;SDS011;69203;48.964;9.118;2023-04-25T02:11:38;3.50;;;0.10;;
79708;SDS011;69203;48.964;9.118;2023-04-25T02:12:39;3.43;;;0.07;;
79708;SDS011;69203;48.964;9.118;2023-04-25T02:13:39;3.27;;;0.10;;
79708;SDS011;69203;48.964;9.118;2023-04-25T02:14:40;3.43;;;0.10;;
79708;SDS011;69203;48.964;9.118;2023-04-25T02:15:40;3.33;;;0.00;;
79708;SDS011;69203;48.964;9.118;2023-04-25T02:16:41;3.60;;;0.10;;
79708;SDS011;69203;48.964;9.118;2023-04-25T02:17:43;3.50;;;0.10;;
79708;SDS011;69203;48.964;9.118;2023-04-25T02:18:45;3.45;;;0.10;;
79708;SDS011;69203;48.964;9.118;2023-04-25T02:19:45;3.57;;;0.10;;
79708;SDS011;69203;48.964;9.118;2023-04-25T02:20:45;3.60;;;0.10;;
79708;SDS011;69203;48.964;9.118;2023-04-25T02:21:47;3.60;;;0.10;;
79708;SDS011;69203;48.964;9.118;2023-04-25T02:22:47;3.70;;;0.10;;
79708;SDS011;69203;48.964;9.118;2023-04-25T02:23:48;3.57;;;0.10;;
79708;SDS011;69203;48.964;9.118;2023-04-25T02:24:49;3.55;;;0.10;;
79708;SDS011;69203;48.964;9.118;2023-04-25T02:25:49;3.50;;;0.10;;
79708;SDS011;69203;48.964;9.118;2023-04-25T02:26:50;3.58;;;0.10;;
79708;SDS011;69203;48.964;9.118;2023-04-25T02:27:51;3.53;;;0.10;;
79708;SDS011;69203;48.964;9.118;2023-04-25T02:28:51;3.50;;;0.10;;
79708;SDS011;69203;48.964;9.118;2023-04-25T02:29:52;3.67;;;0.10;;
79708;SDS011;69203;48.964;9.118;2023-04-25T02:30:52;3.63;;;0.10;;
79708;SDS011;69203;48.964;9.118;2023-04-25T02:31:53;3.77;;;0.10;;
79708;SDS011;69203;48.964;9.118;2023-04-25T02:32:53;3.53;;;0.10;;
79708;SDS011;69203;48.964;9.118;2023-04-25T02:33:53;3.73;;;0.10;;
79708;SDS011;69203;48.964;9.118;2023-04-25T02:34:54;3.53;;;0.10;;
79708;SDS011;69203;48.964;9.118;2023-04-25T02:35:54;3.70;;;0.10;;
79708;SDS011;69203;48.964;9.118;2023-04-25T02:36:55;3.53;;;0.10;;
79708;SDS011;69203;48.964;9.118;2023-04-25T02:37:56;3.47;;;0.10;;
79708;SDS011;69203;48.964;9.118;2023-04-25T02:38:56;3.63;;;0.10;;
79708;SDS011;69203;48.964;9.118;2023-04-25T02:39:56;3.63;;;0.10;;
79708;SDS011;69203;48.964;9.118;2023-04-25T02:40:57;3.73;;;0.10;;
79708;SDS011;69203;48.964;9.118;2023-04-25T02:41:57;3.70;;;0.10;;
79708;SDS011;69203;48.964;9.118;2023-04-25T02:42:57;3.57;;;0.10;;
79708;SDS011;69203;48.964;9.118;2023-04-25T02:43:58;3.63;;;0.10;;
79708;SDS011;69203;48.964;9.118;2023-04-25T02:45:00;3.47;;;0.10;;
79708;SDS011;69203;48.964;9.118;2023-04-25T02:46:00;3.57;;;0.10;;
79708;SDS011;69203;48.964;9.118;2023-04-25T02:47:00;3.60;;;0.10;;
79708;SDS011;69203;48.964;9.118;2023-04-25T02:48:02;3.47;;;0.10;;
79708;SDS011;69203;48.964;9.118;2023-04-25T02:49:03;3.45;;;0.10;;
79708;SDS011;69203;48.964;9.118;2023-04-25T02:50:03;3.47;;;0.10;;
79708;SDS011;69203;48.964;9.118;2023-04-25T02:51:04;3.45;;;0.10;;
79708;SDS011;69203;48.964;9.118;2023-04-25T02:52:06;3.55;;;0.10;;
79708;SDS011;69203;48.964;9.118;2023-04-25T02:53:06;3.60;;;0.10;;
79708;SDS011;69203;48.964;9.118;2023-04-25T02:54:07;3.70;;;0.20;;
79708;SDS011;69203;48.964;9.118;2023-04-25T02:55:07;3.60;;;0.10;;
79708;SDS011;69203;48.964;9.118;2023-04-25T02:56:08;3.45;;;0.10;;
79708;SDS011;69203;48.964;9.118;2023-04-25T02:57:08;3.70;;;0.10;;
79708;SDS011;69203;48.964;9.118;2023-04-25T02:58:09;3.10;;;0.10;;
79708;SDS011;69203;48.964;9.118;2023-04-25T02:59:10;1.80;;;0.10;;
79708;SDS011;69203;48.964;9.118;2023-04-25T03:00:10;1.90;;;0.10;;
79708;SDS011;69203;48.964;9.118;2023-04-25T03:01:11;1.83;;;0.10;;
79708;SDS011;69203;48.964;9.118;2023-04-25T03:02:12;1.93;;;0.00;;
79708;SDS011;69203;48.964;9.118;2023-04-25T03:03:12;2.30;;;0.10;;
79708;SDS011;69203;48.964;9.118;2023-04-25T03:04:12;3.33;;;0.10;;
79708;SDS011;69203;48.964;9.118;2023-04-25T03:05:13;3.63;;;0.10;;
79708;SDS011;69203;48.964;9.118;2023-04-25T03:06:14;3.43;;;0.10;;
79708;SDS011;69203;48.964;9.118;2023-04-25T03:07:15;3.20;;;0.03;;
79708;SDS011;69203;48.964;9.118;2023-04-25T03:08:17;3.30;;;0.13;;
79708;SDS011;69203;48.964;9.118;2023-04-25T03:09:19;3.47;;;0.10;;
79708;SDS011;69203;48.964;9.118;2023-04-25T03:10:19;2.93;;;0.10;;
79708;SDS011;69203;48.964;9.118;2023-04-25T03:11:20;3.07;;;0.10;;
79708;SDS011;69203;48.964;9.118;2023-04-25T03:12:20;3.47;;;0.10;;
79708;SDS011;69203;48.964;9.118;2023-04-25T03:13:20;3.23;;;0.10;;
79708;SDS011;69203;48.964;9.118;2023-04-25T03:14:21;3.10;;;0.10;;
79708;SDS011;69203;48.964;9.118;2023-04-25T03:15:21;3.73;;;0.10;;
79708;SDS011;69203;48.964;9.118;2023-04-25T03:16:22;3.70;;;0.10;;
79708;SDS011;69203;48.964;9.118;2023-04-25T03:17:22;3.63;;;0.10;;
79708;SDS011;69203;48.964;9.118;2023-04-25T03:18:22;3.57;;;0.10;;
79708;SDS011;69203;48.964;9.118;2023-04-25T03:19:23;3.53;;;0.10;;
79708;SDS011;69203;48.964;9.118;2023-04-25T03:20:23;3.43;;;0.10;;
79708;SDS011;69203;48.964;9.118;2023-04-25T03:21:24;3.50;;;0.10;;
79708;SDS011;69203;48.964;9.118;2023-04-25T03:22:25;3.50;;;0.10;;
79708;SDS011;69203;48.964;9.118;2023-04-25T03:23:25;3.73;;;0.10;;
79708;SDS011;69203;48.964;9.118;2023-04-25T03:24:26;3.67;;;0.10;;
79708;SDS011;69203;48.964;9.118;2023-04-25T03:25:27;3.55;;;0.10;;
79708;SDS011;69203;48.964;9.118;2023-04-25T03:26:27;3.63;;;0.10;;
79708;SDS011;69203;48.964;9.118;2023-04-25T03:27:27;3.70;;;0.10;;
79708;SDS011;69203;48.964;9.118;2023-04-25T03:28:28;3.90;;;0.10;;
79708;SDS011;69203;48.964;9.118;2023-04-25T03:29:28;3.57;;;0.10;;
79708;SDS011;69203;48.964;9.118;2023-04-25T03:30:29;3.43;;;0.10;;
79708;SDS011;69203;48.964;9.118;2023-04-25T03:31:29;3.67;;;0.10;;
79708;SDS011;69203;48.964;9.118;2023-04-25T03:32:30;3.35;;;0.10;;
79708;SDS011;69203;48.964;9.118;2023-04-25T03:33:30;3.70;;;0.10;;
79708;SDS011;69203;48.964;9.118;2023-04-25T03:34:31;3.63;;;0.10;;
79708;SDS011;69203;48.964;9.118;2023-04-25T03:35:31;3.47;;;0.07;;
79708;SDS011;69203;48.964;9.118;2023-04-25T03:36:31;3.53;;;0.10;;
79708;SDS011;69203;48.964;9.118;2023-04-25T03:37:32;3.40;;;0.07;;
79708;SDS011;69203;48.964;9.118;2023-04-25T03:38:33;3.57;;;0.10;;
79708;SDS011;69203;48.964;9.118;2023-04-25T03:39:33;3.57;;;0.10;;
79708;SDS011;69203;48.964;9.118;2023-04-25T03:40:34;3.73;;;0.10;;
79708;SDS011;69203;48.964;9.118;2023-04-25T03:41:34;3.63;;;0.10;;
79708;SDS011;69203;48.964;9.118;2023-04-25T03:42:35;3.80;;;0.10;;
79708;SDS011;69203;48.964;9.118;2023-04-25T03:43:35;3.63;;;0.10;;
79708;SDS011;69203;48.964;9.118;2023-04-25T03:44:36;3.53;;;0.10;;
79708;SDS011;69203;48.964;9.118;2023-04-25T03:45:36;3.60;;;0.10;;
79708;SDS011;69203;48.964;9.118;2023-04-25T03:46:37;3.63;;;0.10;;
79708;SDS011;69203;48.964;9.118;2023-04-25T03:47:37;3.60;;;0.10;;
79708;SDS011;69203;48.964;9.118;2023-04-25T03:48:37;3.60;;;0.10;;
79708;SDS011;69203;48.964;9.118;2023-04-25T03:49:38;3.73;;;0.17;;
79708;SDS011;69203;48.964;9.118;2023-04-25T03:50:38;3.53;;;0.10;;
79708;SDS011;69203;48.964;9.118;2023-04-25T03:51:38;3.53;;;0.10;;
79708;SDS011;69203;48.964;9.118;2023-04-25T03:52:39;3.60;;;0.10;;
79708;SDS011;69203;48.964;9.118;2023-04-25T03:53:39;3.53;;;0.10;;
79708;SDS011;69203;48.964;9.118;2023-04-25T03:54:40;3.47;;;0.10;;
79708;SDS011;69203;48.964;9.118;2023-04-25T03:55:40;3.47;;;0.10;;
79708;SDS011;69203;48.964;9.118;2023-04-25T03:56:40;3.43;;;0.10;;
79708;SDS011;69203;48.964;9.118;2023-04-25T03:57:41;3.33;;;0.03;;
79708;SDS011;69203;48.964;9.118;2023-04-25T03:58:42;3.50;;;0.10;;
79708;SDS011;69203;48.964;9.118;2023-04-25T03:59:42;3.53;;;0.10;;
79708;SDS011;69203;48.964;9.118;2023-04-25T04:00:43;3.20;;;0.10;;
79708;SDS011;69203;48.964;9.118;2023-04-25T04:01:43;3.63;;;0.10;;
79708;SDS011;69203;48.964;9.118;2023-04-25T04:02:44;3.53;;;0.10;;
79708;SDS011;69203;48.964;9.118;2023-04-25T04:03:44;3.57;;;0.10;;
79708;SDS011;69203;48.964;9.118;2023-04-25T04:04:45;3.33;;;0.00;;
79708;SDS011;69203;48.964;9.118;2023-04-25T04:05:45;3.53;;;0.10;;
79708;SDS011;69203;48.964;9.118;2023-04-25T04:06:46;3.40;;;0.10;;
79708;SDS011;69203;48.964;9.118;2023-04-25T04:07:47;3.23;;;0.10;;
79708;SDS011;69203;48.964;9.118;2023-04-25T04:08:47;3.33;;;0.10;;
79708;SDS011;69203;48.964;9.118;2023-04-25T04:09:47;3.27;;;0.10;;
79708;SDS011;69203;48.964;9.118;2023-04-25T04:10:48;3.23;;;0.07;;
79708;SDS011;69203;48.964;9.118;2023-04-25T04:11:48;3.53;;;0.10;;
79708;SDS011;69203;48.964;9.118;2023-04-25T04:12:48;3.43;;;0.10;;
79708;SDS011;69203;48.964;9.118;2023-04-25T04:13:49;3.43;;;0.10;;
79708;SDS011;69203;48.964;9.118;2023-04-25T04:14:49;3.23;;;0.10;;
79708;SDS011;69203;48.964;9.118;2023-04-25T04:15:50;3.13;;;0.10;;
79708;SDS011;69203;48.964;9.118;2023-04-25T04:16:50;3.13;;;0.10;;
79708;SDS011;69203;48.964;9.118;2023-04-25T04:17:51;3.23;;;0.03;;
79708;SDS011;69203;48.964;9.118;2023-04-25T04:18:58;3.33;;;0.07;;
79708;SDS011;69203;48.964;9.118;2023-04-25T04:19:59;3.33;;;0.10;;
79708;SDS011;69203;48.964;9.118;2023-04-25T04:20:59;3.47;;;0.10;;
79708;SDS011;69203;48.964;9.118;2023-04-25T04:22:00;3.37;;;0.10;;
79708;SDS011;69203;48.964;9.118;2023-04-25T04:23:01;3.37;;;0.10;;
79708;SDS011;69203;48.964;9.118;2023-04-25T04:24:03;3.65;;;0.10;;
79708;SDS011;69203;48.964;9.118;2023-04-25T04:25:03;3.58;;;0.10;;
79708;SDS011;69203;48.964;9.118;2023-04-25T04:26:05;3.40;;;0.10;;
79708;SDS011;69203;48.964;9.118;2023-04-25T04:27:07;3.45;;;0.10;;
79708;SDS011;69203;48.964;9.118;2023-04-25T04:28:07;3.40;;;0.10;;
79708;SDS011;69203;48.964;9.118;2023-04-25T04:29:07;3.33;;;0.10;;
79708;SDS011;69203;48.964;9.118;2023-04-25T04:30:08;3.53;;;0.10;;
79708;SDS011;69203;48.964;9.118;2023-04-25T04:31:10;3.60;;;0.10;;
79708;SDS011;69203;48.964;9.118;2023-04-25T04:32:10;3.45;;;0.10;;
79708;SDS011;69203;48.964;9.118;2023-04-25T04:33:11;3.43;;;0.10;;
79708;SDS011;69203;48.964;9.118;2023-04-25T04:34:12;3.63;;;0.10;;
79708;SDS011;69203;48.964;9.118;2023-04-25T04:35:12;3.73;;;0.10;;
79708;SDS011;69203;48.964;9.118;2023-04-25T04:36:13;3.63;;;0.10;;
79708;SDS011;69203;48.964;9.118;2023-04-25T04:37:14;3.80;;;0.10;;
79708;SDS011;69203;48.964;9.118;2023-04-25T04:38:14;3.73;;;0.10;;
79708;SDS011;69203;48.964;9.118;2023-04-25T04:39:15;3.77;;;0.10;;
79708;SDS011;69203;48.964;9.118;2023-04-25T04:40:15;3.63;;;0.10;;
79708;SDS011;69203;48.964;9.118;2023-04-25T04:41:16;3.80;;;0.10;;
79708;SDS011;69203;48.964;9.118;2023-04-25T04:42:16;3.63;;;0.10;;
79708;SDS011;69203;48.964;9.118;2023-04-25T04:43:17;3.77;;;0.17;;
79708;SDS011;69203;48.964;9.118;2023-04-25T04:44:18;3.65;;;0.10;;
79708;SDS011;69203;48.964;9.118;2023-04-25T04:45:19;3.63;;;0.10;;
79708;SDS011;69203;48.964;9.118;2023-04-25T04:46:20;3.90;;;0.10;;
79708;SDS011;69203;48.964;9.118;2023-04-25T04:47:21;3.72;;;0.10;;
79708;SDS011;69203;48.964;9.118;2023-04-25T04:48:23;3.67;;;0.10;;
79708;SDS011;69203;48.964;9.118;2023-04-25T04:49:24;3.87;;;0.10;;
79708;SDS011;69203;48.964;9.118;2023-04-25T04:50:24;3.80;;;0.10;;
79708;SDS011;69203;48.964;9.118;2023-04-25T04:51:26;3.85;;;0.10;;
79708;SDS011;69203;48.964;9.118;2023-04-25T04:52:26;3.93;;;0.10;;
79708;SDS011;69203;48.964;9.118;2023-04-25T04:53:27;3.90;;;0.10;;
79708;SDS011;69203;48.964;9.118;2023-04-25T04:54:27;3.93;;;0.10;;
79708;SDS011;69203;48.964;9.118;2023-04-25T04:55:28;3.87;;;0.10;;
79708;SDS011;69203;48.964;9.118;2023-04-25T04:56:28;3.73;;;0.10;;
79708;SDS011;69203;48.964;9.118;2023-04-25T04:57:31;3.88;;;0.10;;
79708;SDS011;69203;48.964;9.118;2023-04-25T04:58:32;3.83;;;0.10;;
79708;SDS011;69203;48.964;9.118;2023-04-25T04:59:33;3.90;;;0.10;;
79708;SDS011;69203;48.964;9.118;2023-04-25T05:00:33;3.70;;;0.10;;
79708;SDS011;69203;48.964;9.118;2023-04-25T05:01:34;3.77;;;0.10;;
79708;SDS011;69203;48.964;9.118;2023-04-25T05:02:37;3.53;;;0.10;;
79708;SDS011;69203;48.964;9.118;2023-04-25T05:03:38;3.65;;;0.10;;
79708;SDS011;69203;48.964;9.118;2023-04-25T05:04:40;3.60;;;0.10;;
79708;SDS011;69203;48.964;9.118;2023-04-25T05:05:41;3.67;;;0.10;;
79708;SDS011;69203;48.964;9.118;2023-04-25T05:06:41;3.73;;;0.10;;
79708;SDS011;69203;48.964;9.118;2023-04-25T05:07:42;3.83;;;0.10;;
79708;SDS011;69203;48.964;9.118;2023-04-25T05:08:42;3.77;;;0.10;;
79708;SDS011;69203;48.964;9.118;2023-04-25T05:09:42;3.70;;;0.10;;
79708;SDS011;69203;48.964;9.118;2023-04-25T05:10:43;3.83;;;0.10;;
79708;SDS011;69203;48.964;9.118;2023-04-25T05:11:43;3.73;;;0.10;;
79708;SDS011;69203;48.964;9.118;2023-04-25T05:12:43;3.80;;;0.10;;
79708;SDS011;69203;48.964;9.118;2023-04-25T05:13:44;3.73;;;0.10;;
79708;SDS011;69203;48.964;9.118;2023-04-25T05:14:45;3.67;;;0.10;;
79708;SDS011;69203;48.964;9.118;2023-04-25T05:15:46;3.73;;;0.10;;
79708;SDS011;69203;48.964;9.118;2023-04-25T05:16:46;3.67;;;0.10;;
79708;SDS011;69203;48.964;9.118;2023-04-25T05:17:47;3.70;;;0.10;;
79708;SDS011;69203;48.964;9.118;2023-04-25T05:18:47;3.47;;;0.10;;
79708;SDS011;69203;48.964;9.118;2023-04-25T05:19:48;3.60;;;0.10;;
79708;SDS011;69203;48.964;9.118;2023-04-25T05:20:48;3.90;;;0.10;;
79708;SDS011;69203;48.964;9.118;2023-04-25T05:21:48;3.53;;;0.10;;
79708;SDS011;69203;48.964;9.118;2023-04-25T05:22:49;3.53;;;0.10;;
79708;SDS011;69203;48.964;9.118;2023-04-25T05:23:49;3.33;;;0.10;;
79708;SDS011;69203;48.964;9.118;2023-04-25T05:24:49;3.40;;;0.17;;
79708;SDS011;69203;48.964;9.118;2023-04-25T05:25:51;3.30;;;0.10;;
79708;SDS011;69203;48.964;9.118;2023-04-25T05:26:51;3.27;;;0.10;;
79708;SDS011;69203;48.964;9.118;2023-04-25T05:27:52;3.33;;;0.10;;
79708;SDS011;69203;48.964;9.118;2023-04-25T05:28:52;3.13;;;0.07;;
79708;SDS011;69203;48.964;9.118;2023-04-25T05:29:53;3.13;;;0.10;;
79708;SDS011;69203;48.964;9.118;2023-04-25T05:30:53;3.67;;;0.10;;
79708;SDS011;69203;48.964;9.118;2023-04-25T05:31:53;3.60;;;0.10;;
79708;SDS011;69203;48.964;9.118;2023-04-25T05:32:54;3.73;;;0.10;;
79708;SDS011;69203;48.964;9.118;2023-04-25T05:33:54;3.60;;;0.10;;
79708;SDS011;69203;48.964;9.118;2023-04-25T05:34:55;3.73;;;0.10;;
79708;SDS011;69203;48.964;9.118;2023-04-25T05:35:55;3.80;;;0.10;;
79708;SDS011;69203;48.964;9.118;2023-04-25T05:36:55;3.80;;;0.20;;
79708;SDS011;69203;48.964;9.118;2023-04-25T05:37:56;3.77;;;0.10;;
79708;SDS011;69203;48.964;9.118;2023-04-25T05:38:57;3.77;;;0.10;;
79708;SDS011;69203;48.964;9.118;2023-04-25T05:39:59;3.70;;;0.20;;
79708;SDS011;69203;48.964;9.118;2023-04-25T05:40:59;3.65;;;0.10;;
79708;SDS011;69203;48.964;9.118;2023-04-25T05:42:00;3.70;;;0.10;;
79708;SDS011;69203;48.964;9.118;2023-04-25T05:43:01;3.53;;;0.10;;
79708;SDS011;69203;48.964;9.118;2023-04-25T05:44:01;3.67;;;0.10;;
79708;SDS011;69203;48.964;9.118;2023-04-25T05:45:02;3.70;;;0.10;;
79708;SDS011;69203;48.964;9.118;2023-04-25T05:46:03;3.50;;;0.10;;
79708;SDS011;69203;48.964;9.118;2023-04-25T05:47:05;3.60;;;0.10;;
79708;SDS011;69203;48.964;9.118;2023-04-25T05:48:06;3.60;;;0.10;;
79708;SDS011;69203;48.964;9.118;2023-04-25T05:49:06;3.83;;;0.10;;
79708;SDS011;69203;48.964;9.118;2023-04-25T05:50:07;3.97;;;0.10;;
79708;SDS011;69203;48.964;9.118;2023-04-25T05:51:08;3.70;;;0.10;;
79708;SDS011;69203;48.964;9.118;2023-04-25T05:52:09;3.73;;;0.10;;
79708;SDS011;69203;48.964;9.118;2023-04-25T05:53:09;3.80;;;0.10;;
79708;SDS011;69203;48.964;9.118;2023-04-25T05:54:10;3.70;;;0.10;;
79708;SDS011;69203;48.964;9.118;2023-04-25T05:55:10;3.70;;;0.10;;
79708;SDS011;69203;48.964;9.118;2023-04-25T05:56:11;3.67;;;0.10;;
79708;SDS011;69203;48.964;9.118;2023-04-25T05:57:24;3.83;;;0.10;;
79708;SDS011;69203;48.964;9.118;2023-04-25T05:58:25;3.75;;;0.10;;
79708;SDS011;69203;48.964;9.118;2023-04-25T05:59:27;3.85;;;0.10;;
79708;SDS011;69203;48.964;9.118;2023-04-25T06:00:27;4.00;;;0.10;;
79708;SDS011;69203;48.964;9.118;2023-04-25T06:01:28;3.80;;;0.10;;
79708;SDS011;69203;48.964;9.118;2023-04-25T06:02:29;3.87;;;0.10;;
79708;SDS011;69203;48.964;9.118;2023-04-25T06:03:29;3.83;;;0.10;;
79708;SDS011;69203;48.964;9.118;2023-04-25T06:04:30;3.90;;;0.10;;
79708;SDS011;69203;48.964;9.118;2023-04-25T06:05:30;3.83;;;0.10;;
79708;SDS011;69203;48.964;9.118;2023-04-25T06:06:30;3.37;;;0.10;;